Data for 07/21/2008

Time Sea-Level Adjusted Pressure Absolute Pressure Temperature Relative Humidity Dew Point   
(mb) (inHg) (mb) (inHg) (C) (F) (%) (C) (F)
00:05 1018 30.06 847 25.01 21.5 70.6 35 5.5 42
00:10 1018 30.06 847 25.01 21.1 69.9 36 5.7 42.2
00:15 1018 30.06 847 25.01 20.6 69.1 37 5.5 41.9
00:20 1018 30.06 847 25.01 20.3 68.6 38 5.8 42.4
00:25 1018 30.06 847 25.01 20 68 40 6.2 43.2
00:30 1018 30.06 847 25.01 19.7 67.4 42 6.4 43.6
00:35 1018 30.06 847 25.01 19.4 67 43 6.5 43.8
00:40 1018 30.06 847 25.01 19.3 66.8 44 6.9 44.5
00:45 1018 30.06 847 25.01 19.3 66.8 44 6.8 44.2
00:50 1018 30.06 847 25.01 19.3 66.8 44 6.8 44.3
00:55 1018 30.06 847 25.01 19.2 66.6 44 6.9 44.5
01:00 1018 30.06 847 25.01 19.2 66.6 44 6.7 44
01:05 1018 30.06 847 25.01 19.2 66.5 44 6.7 44.1
01:10 1018 30.06 847 25.01 19.3 66.7 43 6.4 43.5
01:15 1018 30.06 848 25.04 19.6 67.3 42 6.4 43.4
01:20 1018 30.06 848 25.04 19.6 67.3 42 6.4 43.4
01:25 1018 30.06 848 25.04 19.6 67.3 42 6.4 43.5
01:30 1018 30.06 848 25.04 19.4 66.9 41 6 42.9
01:35 1018 30.06 848 25.04 19.1 66.5 42 6 42.8
01:40 1019 30.09 848 25.04 19.4 66.8 41 5.9 42.6
01:45 1019 30.09 848 25.04 19.4 67 41 6.1 43.1
01:50 1019 30.09 848 25.04 18.7 65.6 44 6.2 43.1
01:55 1019 30.09 848 25.04 18.4 65 44 5.9 42.5
02:00 1019 30.09 848 25.04 18.4 65.1 44 6 42.7
02:05 1019 30.09 848 25.04 18.4 65.2 43 5.7 42.2
02:10 1019 30.09 848 25.04 18.5 65.2 44 6 42.7
02:15 1019 30.09 848 25.04 18.6 65.5 43 6 42.9
02:20 1019 30.09 848 25.04 18.3 65 45 6.2 43.2
02:25 1019 30.09 848 25.04 18.3 64.9 44 6.1 43
02:30 1019 30.09 848 25.04 18.2 64.7 46 6.5 43.7
02:35 1019 30.09 848 25.04 17.9 64.2 47 6.4 43.5
02:40 1019 30.09 848 25.04 17.8 64.1 46 6.2 43.1
02:45 1019 30.09 848 25.04 17.9 64.2 46 6.1 43.1
02:50 1019 30.09 848 25.04 17.7 63.9 47 6.3 43.3
02:55 1019 30.09 848 25.04 17.7 63.8 47 6.2 43.2
03:00 1019 30.09 848 25.04 17.4 63.3 48 6.3 43.4
03:05 1019 30.09 848 25.04 17.4 63.3 49 6.6 43.8
03:10 1019 30.09 848 25.04 17.4 63.4 46 5.8 42.5
03:15 1019 30.09 848 25.04 17.6 63.7 46 5.9 42.6
03:20 1019 30.09 848 25.04 17.6 63.6 47 6.2 43.1
03:25 1019 30.09 848 25.04 17.5 63.5 46 6 42.9
03:30 1019 30.09 848 25.04 17.4 63.3 48 6.4 43.6
03:35 1019 30.09 848 25.04 17.3 63.2 47 6 42.9
03:40 1019 30.09 848 25.04 17.2 62.9 49 6.3 43.4
03:45 1019 30.09 848 25.04 16.8 62.3 51 6.8 44.3
03:50 1019 30.09 848 25.04 16.5 61.7 50 6 42.9
03:55 1019 30.09 848 25.04 16.5 61.8 49 5.7 42.3
04:00 1019 30.09 848 25.04 16.8 62.3 47 5.7 42.2
04:05 1019 30.09 848 25.04 16.8 62.3 49 6.3 43.3
04:10 1019 30.09 848 25.04 16.4 61.5 50 6 42.8
04:15 1019 30.09 848 25.04 16.5 61.7 49 5.9 42.5
04:20 1019 30.09 848 25.04 16.8 62.3 48 5.8 42.4
04:25 1019 30.09 848 25.04 17 62.7 48 6.1 42.9
04:30 1019 30.09 848 25.04 16.7 62.1 50 6.3 43.4
04:35 1019 30.09 848 25.04 16.1 60.9 53 6.5 43.7
04:40 1019 30.09 848 25.04 15.8 60.4 55 7 44.5
04:45 1019 30.09 848 25.04 15.3 59.6 58 7.3 45.1
04:50 1019 30.09 848 25.04 15.2 59.3 54 6.1 43
04:55 1019 30.09 848 25.04 15 59.1 56 6.3 43.4
05:00 1019 30.09 848 25.04 15.2 59.3 53 5.7 42.3
05:05 1019 30.09 849 25.07 15.8 60.5 50 5.6 42
05:10 1019 30.09 849 25.07 16.2 61.2 49 5.5 42
05:15 1019 30.09 849 25.07 16.4 61.4 49 5.7 42.2
05:20 1019 30.09 849 25.07 16.4 61.5 50 5.9 42.7
05:25 1019 30.09 849 25.07 16.3 61.4 51 6.4 43.4
05:30 1019 30.09 849 25.07 16.3 61.4 49 5.6 42
05:35 1019 30.09 849 25.07 16.5 61.8 47 5.4 41.7
05:40 1020 30.12 849 25.07 16.1 61 50 5.8 42.4
05:45 1020 30.12 849 25.07 16.2 61.1 47 5 41
05:50 1020 30.12 849 25.07 16.5 61.8 48 5.6 42
05:55 1020 30.12 849 25.07 15.8 60.5 51 5.7 42.3
06:00 1020 30.12 849 25.07 15.5 59.9 52 5.9 42.6
06:05 1020 30.12 849 25.07 15.1 59.1 54 6 42.9
06:10 1020 30.12 849 25.07 14.7 58.4 57 6.3 43.4
06:15 1020 30.12 849 25.07 14.4 57.8 57 6.1 43
06:20 1020 30.12 849 25.07 14.3 57.7 56 5.8 42.4
06:25 1020 30.12 849 25.07 15.1 59.1 52 5.3 41.6
06:30 1020 30.12 849 25.07 15.6 60 52 5.7 42.3
06:35 1020 30.12 849 25.07 15.9 60.7 49 5.4 41.7
06:40 1020 30.12 849 25.07 16.2 61.2 49 5.7 42.3
06:45 1020 30.12 849 25.07 16.2 61.1 50 5.9 42.6
06:50 1020 30.12 849 25.07 16.1 61 51 6.1 42.9
06:55 1020 30.12 849 25.07 16.2 61.2 51 6.1 43
07:00 1020 30.12 849 25.07 16.5 61.8 51 6.4 43.5
07:05 1020 30.12 849 25.07 16.6 61.9 51 6.6 44
07:10 1020 30.12 849 25.07 16.5 61.8 53 7 44.6
07:15 1020 30.12 849 25.07 16.6 61.9 51 6.6 43.8
07:20 1020 30.12 850 25.1 16.7 62 52 6.8 44.3
07:25 1020 30.12 850 25.1 17.1 62.8 50 6.7 44.1
07:30 1020 30.12 850 25.1 17.4 63.3 54 8.1 46.6
07:35 1020 30.12 850 25.1 17.4 63.3 51 7.3 45.2
07:40 1020 30.12 850 25.1 17.2 63 54 7.9 46.1
07:45 1020 30.12 850 25.1 17.6 63.7 49 6.9 44.4
07:50 1020 30.12 850 25.1 18 64.3 49 7.1 44.8
07:55 1021 30.15 850 25.1 18.4 65.2 47 7 44.6
08:00 1021 30.15 850 25.1 18.3 65 51 8 46.4
08:05 1021 30.15 850 25.1 18.8 65.8 47 7.3 45.1
08:10 1021 30.15 850 25.1 19.3 66.7 46 7.4 45.3
08:15 1021 30.15 850 25.1 19.5 67.2 48 8.3 46.9
08:20 1021 30.15 850 25.1 19.4 67 51 9.1 48.3
08:25 1021 30.15 850 25.1 19.3 66.7 50 8.6 47.5
08:30 1021 30.15 850 25.1 19.2 66.5 51 8.8 47.8
08:35 1021 30.15 850 25.1 19.4 66.9 54 9.9 49.8
08:40 1021 30.15 850 25.1 19.5 67.1 50 8.9 48
08:45 1021 30.15 850 25.1 20.2 68.4 48 8.9 48
08:50 1021 30.15 850 25.1 20.8 69.5 43 7.9 46.3
08:55 1021 30.15 850 25.1 21.4 70.5 41 7.7 45.8
09:00 1021 30.15 850 25.1 21.6 70.9 40 7.6 45.7
09:05 1021 30.15 850 25.1 22.3 72.2 40 8.2 46.8
09:10 1021 30.15 850 25.1 22.6 72.6 39 8 46.5
09:15 1021 30.15 850 25.1 22.9 73.2 38 8 46.4
09:20 1021 30.15 850 25.1 23.4 74.2 37 8.1 46.5
09:25 1021 30.15 850 25.1 23.8 74.8 32 6.2 43.1
09:30 1021 30.15 850 25.1 24.2 75.6 32 6.8 44.2
09:35 1021 30.15 850 25.1 24.9 76.8 31 6.6 44
09:40 1020 30.12 850 25.1 24.7 76.5 33 7.6 45.6
09:45 1020 30.12 850 25.1 24.6 76.2 32 7.2 45
09:50 1020 30.12 850 25.1 24.8 76.6 33 7.5 45.6
09:55 1020 30.12 850 25.1 24.5 76.2 33 7.3 45.1
10:00 1020 30.12 850 25.1 24.5 76.2 36 8.8 47.8
10:05 1020 30.12 850 25.1 24.9 76.9 35 8.7 47.7
10:10 1020 30.12 850 25.1 25.6 78.1 32 8 46.4
10:15 1020 30.12 850 25.1 25.2 77.3 33 8 46.3
10:20 1020 30.12 850 25.1 25.5 77.8 31 7.4 45.3
10:25 1020 30.12 850 25.1 25.9 78.6 28 6.5 43.7
10:30 1020 30.12 850 25.1 26.4 79.6 27 6.2 43.2
10:35 1020 30.12 850 25.1 26.7 80 24 5 41
10:40 1020 30.12 850 25.1 27.1 80.7 26 6.2 43.1
10:45 1020 30.12 850 25.1 27 80.6 27 6.4 43.6
10:50 1020 30.12 850 25.1 26.8 80.2 27 6.3 43.3
10:55 1020 30.12 849 25.07 26.6 79.8 26 5.8 42.5
11:00 1020 30.12 849 25.07 26.8 80.2 26 6.2 43.1
11:05 1020 30.12 850 25.1 27.3 81.1 25 6 42.9
11:10 1020 30.12 850 25.1 28 82.4 24 6.2 43.1
11:15 1020 30.12 849 25.07 27.9 82.3 25 6.4 43.6
11:20 1020 30.12 849 25.07 27.4 81.3 26 6.5 43.7
11:25 1020 30.12 849 25.07 28.2 82.8 25 6.4 43.6
11:30 1020 30.12 849 25.07 28.4 83.1 25 6.8 44.3
11:35 1020 30.12 849 25.07 27.9 82.1 25 6.3 43.3
11:40 1020 30.12 849 25.07 28.5 83.4 24 6.3 43.3
11:45 1020 30.12 849 25.07 28.8 83.9 24 6.7 44
11:50 1020 30.12 849 25.07 28.9 83.9 25 7.1 44.8
11:55 1020 30.12 849 25.07 29.2 84.6 24 7.1 44.8
12:00 1020 30.12 849 25.07 29.1 84.3 22 5.6 42.1
12:05 1020 30.12 849 25.07 28.7 83.7 21 4.5 40.1
12:10 1020 30.12 849 25.07 29 84.2 19 3.4 38.1
12:15 1020 30.12 849 25.07 28.9 84 18 2.8 37
12:20 1020 30.12 849 25.07 30 85.9 17 2.5 36.5
12:25 1020 30.12 849 25.07 30.2 86.4 18 3.4 38.2
12:30 1020 30.12 849 25.07 30 86 17 2.9 37.2
12:35 1020 30.12 849 25.07 30.8 87.5 15 1.3 34.4
12:40 1020 30.12 849 25.07 31.5 88.6 16 2.7 36.9
12:45 1020 30.12 849 25.07 31.6 88.9 14 1.3 34.4
12:50 1019 30.09 849 25.07 31.3 88.3 16 2.9 37.3
12:55 1019 30.09 849 25.07 30.6 87 17 3 37.4
13:00 1019 30.09 849 25.07 30.6 87.2 16 2.1 35.7
13:05 1019 30.09 848 25.04 31.3 88.4 14 0.7 33.3
13:10 1019 30.09 848 25.04 31.8 89.3 14 1.7 35.1
13:15 1019 30.09 848 25.04 30.9 87.7 16 2.3 36.1
13:20 1019 30.09 848 25.04 30.5 86.9 16 2.3 36.1
13:25 1019 30.09 848 25.04 31 87.8 15 1.5 34.7
13:30 1019 30.09 848 25.04 30.4 86.8 17 2.9 37.1
13:35 1019 30.09 848 25.04 30.3 86.6 14 0.6 33
13:40 1019 30.09 848 25.04 31.1 88 15 1.5 34.8
13:45 1019 30.09 848 25.04 31.4 88.6 14 0.6 33.1
13:50 1019 30.09 848 25.04 31.5 88.6 13 0 32.1
13:55 1019 30.09 848 25.04 31.2 88.1 14 0.4 32.7
14:00 1019 30.09 848 25.04 31 87.9 15 1.5 34.7
14:05 1019 30.09 848 25.04 31.3 88.3 15 2 35.6
14:10 1018 30.06 848 25.04 31.9 89.4 14 1.6 34.9
14:15 1018 30.06 848 25.04 32.3 90.2 14 2.3 36.1
14:20 1018 30.06 848 25.04 32.3 90.2 14 2.3 36.2
14:25 1018 30.06 847 25.01 32.6 90.7 14 2.2 36
14:30 1018 30.06 847 25.01 32 89.7 14 2 35.6
14:35 1018 30.06 847 25.01 31.9 89.4 15 2.2 36
14:40 1018 30.06 847 25.01 32 89.6 14 1.5 34.7
14:45 1018 30.06 847 25.01 31.5 88.6 16 2.8 37
14:50 1018 30.06 847 25.01 31.3 88.3 14 1.2 34.1
14:55 1018 30.06 847 25.01 31.6 88.9 14 1.1 34
15:00 1018 30.06 847 25.01 31.6 89 14 1.4 34.4
15:05 1018 30.06 847 25.01 31.9 89.4 14 1.6 34.9
15:10 1018 30.06 847 25.01 32.5 90.5 14 1.9 35.4
15:15 1018 30.06 847 25.01 33.5 92.3 14 2.3 36.1
15:20 1018 30.06 847 25.01 33.4 92.1 13 2.1 35.7
15:25 1018 30.06 847 25.01 32.9 91.2 14 2.6 36.7
15:30 1018 30.06 847 25.01 33.6 92.4 14 2.8 37
15:35 1018 30.06 847 25.01 32.7 90.9 15 2.6 36.8
15:40 1018 30.06 847 25.01 32.5 90.4 14 1.9 35.5
15:45 1018 30.06 847 25.01 32.7 90.9 14 2.3 36.1
15:50 1017 30.03 847 25.01 33.5 92.3 14 2.4 36.3
15:55 1017 30.03 847 25.01 34.1 93.4 14 3.1 37.7
16:00 1017 30.03 847 25.01 33.6 92.4 14 3.1 37.6
16:05 1017 30.03 847 25.01 33.1 91.6 15 3.5 38.3
16:10 1017 30.03 847 25.01 32.4 90.4 15 2.7 36.8
16:15 1017 30.03 846 24.98 32.3 90.2 15 2.9 37.3
16:20 1017 30.03 846 24.98 32.2 89.9 20 6.9 44.4
16:25 1017 30.03 846 24.98 30.4 86.8 23 7.4 45.3
16:30 1017 30.03 846 24.98 29.8 85.7 23 7.1 44.7
16:35 1017 30.03 846 24.98 29.8 85.6 23 6.7 44.1
16:40 1017 30.03 846 24.98 30.2 86.3 23 6.8 44.3
16:45 1017 30.03 846 24.98 30 86 24 7.6 45.7
16:50 1017 30.03 846 24.98 30.3 86.6 24 7.8 46.1
16:55 1017 30.03 846 24.98 30.4 86.7 21 6.1 43
17:00 1017 30.03 846 24.98 30.2 86.3 22 6.5 43.8
17:05 1017 30.03 846 24.98 30 85.9 20 5.2 41.4
17:10 1017 30.03 846 24.98 29.5 85 21 5.3 41.5
17:15 1017 30.03 846 24.98 29.4 84.9 22 5.6 42
17:20 1017 30.03 846 24.98 29.9 85.8 21 5.5 41.8
17:25 1017 30.03 846 24.98 30 85.9 20 5.2 41.4
17:30 1017 30.03 846 24.98 29.7 85.5 21 5.6 42
17:35 1017 30.03 846 24.98 30 85.9 21 5.9 42.5
17:40 1017 30.03 846 24.98 29.9 85.8 22 6.1 43
17:45 1017 30.03 846 24.98 29.8 85.7 21 5.5 41.8
17:50 1017 30.03 846 24.98 29.5 85 22 5.6 42.1
17:55 1017 30.03 846 24.98 29 84.1 26 7.6 45.6
18:00 1017 30.03 846 24.98 28.6 83.4 25 6.9 44.4
18:05 1017 30.03 846 24.98 28.3 82.9 25 6.4 43.5
18:10 1017 30.03 846 24.98 28 82.4 26 7 44.6
18:15 1017 30.03 846 24.98 27.9 82.3 24 6.1 42.9
18:20 1017 30.03 846 24.98 27.9 82.2 23 5.1 41.1
18:25 1016 30 846 24.98 27.9 82.3 22 4.5 40.1
18:30 1016 30 846 24.98 28 82.3 21 4.1 39.4
18:35 1016 30 846 24.98 27.8 82.1 22 4.3 39.7
18:40 1016 30 846 24.98 27.7 81.8 21 4 39.1
18:45 1016 30 846 24.98 27.6 81.6 21 3.7 38.7
18:50 1017 30.03 846 24.98 27.7 81.8 22 4.2 39.5
18:55 1017 30.03 846 24.98 27.6 81.7 21 3.9 39.1
19:00 1017 30.03 846 24.98 27.5 81.5 23 4.6 40.3
19:05 1017 30.03 846 24.98 27.2 80.9 24 5.4 41.8
19:10 1017 30.03 847 25.01 26.9 80.3 27 6.5 43.7
19:15 1018 30.06 847 25.01 26.3 79.4 29 7.1 44.8
19:20 1018 30.06 847 25.01 25.8 78.5 29 6.5 43.7
19:25 1018 30.06 847 25.01 26 78.8 25 4.9 40.8
19:30 1018 30.06 847 25.01 26.1 78.9 31 8 46.4
19:35 1018 30.06 847 25.01 25.3 77.5 35 9.1 48.4
19:40 1018 30.06 847 25.01 25 77.1 32 7.3 45.2
19:45 1018 30.06 847 25.01 25.4 77.6 31 7.2 44.9
19:50 1019 30.09 848 25.04 24.6 76.3 35 8.3 47
19:55 1019 30.09 848 25.04 23.7 74.6 38 8.6 47.4
20:00 1019 30.09 848 25.04 23.6 74.5 36 7.7 45.9
20:05 1019 30.09 848 25.04 23.8 74.8 32 6.4 43.6
20:10 1019 30.09 848 25.04 23.9 75.1 37 8.4 47.1
20:15 1019 30.09 848 25.04 23 73.4 38 8.3 46.9
20:20 1019 30.09 848 25.04 22.6 72.7 39 8.2 46.7
20:25 1019 30.09 848 25.04 22.6 72.7 38 7.7 45.9
20:30 1019 30.09 848 25.04 22.6 72.8 38 7.8 46.1
20:35 1019 30.09 848 25.04 22.5 72.6 41 8.8 47.9
20:40 1019 30.09 848 25.04 22.1 71.9 42 8.9 48.1
20:45 1019 30.09 848 25.04 21.8 71.2 47 10.1 50.2
20:50 1019 30.09 848 25.04 21 69.9 50 10.4 50.8
20:55 1018 30.06 848 25.04 20.7 69.2 49 9.9 49.8
21:00 1018 30.06 848 25.04 20.4 68.8 50 9.8 49.7
21:05 1018 30.06 847 25.01 20.6 69.1 49 9.7 49.5
21:10 1018 30.06 847 25.01 20.6 69.1 49 9.6 49.3
21:15 1018 30.06 847 25.01 20.7 69.2 48 9.4 48.9
21:20 1018 30.06 847 25.01 20.8 69.5 45 8.7 47.7
21:25 1017 30.03 847 25.01 21.2 70.2 45 8.9 48.1
21:30 1017 30.03 846 24.98 21.7 71 43 8.7 47.7
21:35 1018 30.06 847 25.01 21.2 70.2 47 9.6 49.3
21:40 1018 30.06 847 25.01 20.7 69.3 48 9.4 48.9
21:45 1018 30.06 847 25.01 20.8 69.4 46 8.8 47.8
21:50 1018 30.06 847 25.01 21.1 70 44 8.5 47.3
21:55 1018 30.06 847 25.01 20.9 69.7 47 9.4 48.9
22:00 1018 30.06 848 25.04 20.9 69.5 44 8.3 46.9
22:05 1019 30.09 848 25.04 21.2 70.2 43 8.2 46.7
22:10 1019 30.09 848 25.04 21.6 70.9 36 6.3 43.3
22:15 1018 30.06 848 25.04 23 73.3 32 5.8 42.5
22:20 1019 30.09 848 25.04 23.2 73.8 33 6.4 43.4
22:25 1019 30.09 848 25.04 23 73.5 34 6.5 43.6
22:30 1019 30.09 848 25.04 22.9 73.1 35 6.6 44
22:35 1019 30.09 848 25.04 22.7 72.9 35 6.9 44.3
22:40 1019 30.09 848 25.04 22.5 72.6 36 7.1 44.7
22:45 1019 30.09 848 25.04 22.4 72.4 37 7.2 45
22:50 1019 30.09 848 25.04 22.3 72.1 39 7.7 45.9
22:55 1019 30.09 848 25.04 21.9 71.5 40 8 46.5
23:00 1019 30.09 848 25.04 21.8 71.2 41 8 46.4
23:05 1019 30.09 848 25.04 21.7 71.1 42 8.5 47.3
23:10 1019 30.09 848 25.04 21.6 70.9 41 8 46.5
23:15 1019 30.09 848 25.04 21.6 70.8 41 7.9 46.3
23:20 1019 30.09 848 25.04 21.6 71 41 7.8 46.1
23:25 1019 30.09 848 25.04 21.7 71.1 41 8.1 46.6
23:30 1018 30.06 848 25.04 22.1 71.8 40 8.1 46.7
23:35 1018 30.06 848 25.04 22 71.6 41 8.3 46.9
23:40 1018 30.06 848 25.04 21.6 70.8 42 8.3 47
23:45 1019 30.09 848 25.04 21.5 70.7 43 8.4 47.1
23:50 1019 30.09 848 25.04 21.3 70.4 44 8.6 47.4
23:55 1019 30.09 848 25.04 21 69.8 44 8.4 47.2
24:00 1019 30.09 848 25.04 21 69.9 44 8.4 47.2